Time;durP1;ratioP1;P1;durP2;ratioP2;P2;SDS_P1;SDS_P2;PMS_P1;PMS_P2;Temp;Humidity;BMP_temperature;BMP_pressure;BME280_temperature;BME280_humidity;BME280_pressure;Samples;Min_cycle;Max_cycle;Signal;HPM_P1;HPM_P2
2020/12/04 00:00:32;;;;;;;19.10;17.13;;;3.70;99.90;;;;;;5099939;28;20466;-79
2020/12/04 00:02:59;;;;;;;16.20;13.90;;;3.70;99.90;;;;;;5088247;28;20455;-79
2020/12/04 00:05:26;;;;;;;19.00;15.37;;;3.60;99.90;;;;;;5081455;28;20533;-79
2020/12/04 00:07:53;;;;;;;18.80;14.23;;;3.60;99.90;;;;;;5079881;28;20444;-79
2020/12/04 00:10:20;;;;;;;19.00;15.73;;;3.60;99.90;;;;;;5090616;28;20466;-79
2020/12/04 00:12:47;;;;;;;17.13;14.43;;;3.60;99.90;;;;;;5077772;28;20548;-79
2020/12/04 00:15:14;;;;;;;21.07;15.17;;;3.60;99.90;;;;;;5080290;28;20452;-78
2020/12/04 00:17:42;;;;;;;16.87;14.43;;;3.50;99.90;;;;;;5079506;28;20457;-78
2020/12/04 00:20:09;;;;;;;17.50;13.80;;;3.50;99.90;;;;;;5079525;28;20809;-79
2020/12/04 00:22:36;;;;;;;19.47;16.20;;;3.50;99.90;;;;;;5080472;28;20517;-79
2020/12/04 00:25:03;;;;;;;18.13;14.17;;;3.50;99.90;;;;;;5086788;28;20452;-78
2020/12/04 00:27:30;;;;;;;17.40;14.60;;;3.40;99.90;;;;;;5087170;28;20457;-79
2020/12/04 00:29:57;;;;;;;16.10;12.40;;;3.40;99.90;;;;;;5095516;28;20837;-79
2020/12/04 00:32:24;;;;;;;18.03;15.33;;;3.40;99.90;;;;;;5078474;28;20475;-79
2020/12/04 00:34:52;;;;;;;18.40;15.63;;;3.40;99.90;;;;;;5078614;28;20551;-79
2020/12/04 00:37:19;;;;;;;17.60;14.30;;;3.40;99.90;;;;;;5095678;28;20458;-79
2020/12/04 00:39:46;;;;;;;18.87;14.60;;;3.30;99.90;;;;;;5078353;28;20634;-79
2020/12/04 00:42:13;;;;;;;16.83;13.50;;;3.30;99.90;;;;;;5077771;28;20540;-79
2020/12/04 00:44:40;;;;;;;17.50;15.27;;;3.30;99.90;;;;;;5077403;28;20445;-78
2020/12/04 00:47:07;;;;;;;18.83;13.97;;;3.30;99.90;;;;;;5076848;28;20488;-79
2020/12/04 00:49:35;;;;;;;17.63;14.27;;;3.30;99.90;;;;;;5078698;28;20424;-79
2020/12/04 00:52:03;;;;;;;18.03;14.60;;;3.20;99.90;;;;;;5094663;28;20499;-79
2020/12/04 00:54:31;;;;;;;15.80;13.37;;;3.20;99.90;;;;;;5079283;28;20450;-79
2020/12/04 00:56:58;;;;;;;18.63;14.10;;;3.20;99.90;;;;;;5096560;28;20510;-79
2020/12/04 00:59:35;;;;;;;16.50;13.33;;;3.20;99.90;;;;;;5078615;28;20433;-79
2020/12/04 01:02:02;;;;;;;17.70;13.67;;;3.20;99.90;;;;;;5077540;28;20457;-79
2020/12/04 01:04:30;;;;;;;14.90;12.80;;;3.20;99.90;;;;;;5081050;28;20447;-79
2020/12/04 01:06:57;;;;;;;17.50;14.67;;;3.10;99.90;;;;;;5085917;28;21017;-78
2020/12/04 01:09:24;;;;;;;16.50;13.10;;;3.10;99.90;;;;;;5077172;28;20443;-78
2020/12/04 01:11:52;;;;;;;16.77;14.10;;;3.10;99.90;;;;;;5080742;28;20463;-79
2020/12/04 01:14:19;;;;;;;17.57;13.00;;;3.10;99.90;;;;;;5078312;28;20445;-79
2020/12/04 01:16:47;;;;;;;15.87;13.40;;;3.10;99.90;;;;;;5077354;28;20868;-79
2020/12/04 01:19:14;;;;;;;19.30;14.17;;;3.10;99.90;;;;;;5077264;28;20438;-79
2020/12/04 01:21:46;;;;;;;15.50;12.83;;;3.10;99.90;;;;;;5077518;28;20495;-79
2020/12/04 01:24:13;;;;;;;16.40;14.30;;;3.10;99.90;;;;;;5079578;28;20459;-79
2020/12/04 01:26:41;;;;;;;16.07;13.30;;;3.00;99.90;;;;;;5097295;28;20533;-79
2020/12/04 01:29:08;;;;;;;17.73;14.10;;;3.00;99.90;;;;;;5097689;28;20779;-79
2020/12/04 01:31:35;;;;;;;16.07;13.43;;;3.00;99.90;;;;;;5079206;28;20218;-78
2020/12/04 01:34:03;;;;;;;15.97;13.37;;;3.00;99.90;;;;;;5078084;28;20930;-78
2020/12/04 01:36:30;;;;;;;19.03;13.13;;;3.00;99.90;;;;;;5078382;28;20473;-79
2020/12/04 01:38:57;;;;;;;17.92;13.88;;;3.00;99.90;;;;;;5077371;28;20434;-79
2020/12/04 01:41:24;;;;;;;16.77;13.00;;;3.10;99.90;;;;;;5085389;28;20210;-79
2020/12/04 01:43:52;;;;;;;19.27;13.40;;;3.10;99.90;;;;;;5098274;28;20436;-79
2020/12/04 01:46:19;;;;;;;15.57;13.87;;;3.10;99.90;;;;;;5090841;28;20886;-78
2020/12/04 01:48:47;;;;;;;17.83;14.60;;;3.00;99.90;;;;;;5076861;28;20483;-78
2020/12/04 01:51:14;;;;;;;19.43;15.20;;;3.00;99.90;;;;;;5077315;28;20474;-78
2020/12/04 01:53:44;;;;;;;15.67;13.20;;;3.00;99.90;;;;;;5077048;28;20461;-78
2020/12/04 01:56:11;;;;;;;14.47;12.40;;;3.00;99.90;;;;;;5076877;28;20448;-78
2020/12/04 01:58:38;;;;;;;16.10;12.07;;;3.00;99.90;;;;;;5076938;28;20457;-79
2020/12/04 02:01:07;;;;;;;16.83;14.73;;;3.00;99.90;;;;;;5077710;28;20467;-78
2020/12/04 02:03:34;;;;;;;16.03;13.07;;;3.00;99.90;;;;;;5093140;28;20490;-78
2020/12/04 02:06:07;;;;;;;16.47;13.40;;;3.00;99.90;;;;;;5098369;28;20438;-78
2020/12/04 02:08:40;;;;;;;15.20;12.50;;;3.00;99.90;;;;;;5097880;28;20439;-78
2020/12/04 02:11:17;;;;;;;16.53;13.90;;;3.00;99.90;;;;;;5097077;28;20479;-78
2020/12/04 02:13:45;;;;;;;15.07;12.40;;;3.00;99.90;;;;;;5097431;28;20501;-78
2020/12/04 02:16:16;;;;;;;17.43;13.17;;;3.00;99.90;;;;;;5096108;28;20485;-78
2020/12/04 02:18:43;;;;;;;15.20;12.33;;;3.00;99.90;;;;;;5079646;28;20514;-78
2020/12/04 02:21:11;;;;;;;14.87;12.20;;;3.00;99.90;;;;;;5082489;28;20471;-78
2020/12/04 02:23:39;;;;;;;20.00;13.70;;;3.00;99.90;;;;;;5080552;28;20820;-78
2020/12/04 02:26:07;;;;;;;16.17;13.40;;;3.00;99.90;;;;;;5099631;28;20847;-78
2020/12/04 02:28:36;;;;;;;17.97;13.03;;;3.00;99.90;;;;;;5102437;28;20433;-78
2020/12/04 02:31:04;;;;;;;16.07;12.33;;;3.00;99.90;;;;;;5100318;28;20460;-78
2020/12/04 02:33:31;;;;;;;14.60;12.60;;;3.00;99.90;;;;;;5100877;28;20471;-78
2020/12/04 02:35:58;;;;;;;15.37;13.20;;;3.00;99.90;;;;;;5102687;28;20428;-78
2020/12/04 02:38:27;;;;;;;16.17;14.27;;;3.00;99.90;;;;;;5101322;28;20473;-78
2020/12/04 02:40:55;;;;;;;18.40;14.17;;;3.00;99.90;;;;;;5101247;28;20448;-78
2020/12/04 02:43:22;;;;;;;15.97;14.23;;;3.00;99.90;;;;;;5078232;28;20954;-78
2020/12/04 02:45:49;;;;;;;15.70;12.60;;;3.00;99.90;;;;;;5081092;28;20523;-78
2020/12/04 02:48:17;;;;;;;15.67;14.03;;;3.10;99.90;;;;;;5078061;28;20474;-78
2020/12/04 02:50:44;;;;;;;15.13;13.27;;;3.10;99.90;;;;;;5093358;28;20483;-78
2020/12/04 02:53:11;;;;;;;17.83;14.27;;;3.10;99.90;;;;;;5098479;28;20468;-78
2020/12/04 02:55:40;;;;;;;14.13;12.70;;;3.10;99.90;;;;;;5098515;28;20463;-78
2020/12/04 02:58:07;;;;;;;16.30;12.90;;;3.10;99.90;;;;;;5097424;28;20439;-78
2020/12/04 03:00:34;;;;;;;16.03;13.53;;;3.10;99.90;;;;;;5096842;28;20543;-78
2020/12/04 03:03:01;;;;;;;15.20;13.60;;;3.10;99.90;;;;;;5089036;28;20450;-78
2020/12/04 03:05:28;;;;;;;15.10;13.50;;;3.10;99.90;;;;;;5099027;28;20428;-78
2020/12/04 03:07:55;;;;;;;17.07;12.80;;;3.10;99.90;;;;;;5097615;28;20454;-78
2020/12/04 03:10:22;;;;;;;15.40;12.70;;;3.10;99.90;;;;;;5093835;28;20529;-78
2020/12/04 03:12:50;;;;;;;17.50;13.60;;;3.10;99.90;;;;;;5076534;28;20471;-78
2020/12/04 03:15:17;;;;;;;14.47;12.43;;;3.00;99.90;;;;;;5076249;28;20801;-78
2020/12/04 03:17:44;;;;;;;15.43;12.97;;;3.00;99.90;;;;;;5087118;28;20436;-78
2020/12/04 03:20:11;;;;;;;16.30;13.17;;;3.00;99.90;;;;;;5089062;28;20554;-78
2020/12/04 03:22:39;;;;;;;16.13;13.47;;;3.00;99.90;;;;;;5076424;28;20511;-78
2020/12/04 03:25:07;;;;;;;15.67;13.60;;;3.00;99.90;;;;;;5077205;28;20920;-78
2020/12/04 03:27:34;;;;;;;13.37;11.97;;;3.00;99.90;;;;;;5089407;28;20445;-79
2020/12/04 03:30:02;;;;;;;14.53;13.03;;;3.00;99.90;;;;;;5090247;28;21071;-79
2020/12/04 03:32:29;;;;;;;17.37;12.67;;;3.00;99.90;;;;;;5077861;28;20476;-79
2020/12/04 03:34:56;;;;;;;16.27;13.40;;;3.00;99.90;;;;;;5076791;28;20528;-79
2020/12/04 03:37:23;;;;;;;15.80;12.20;;;3.00;99.90;;;;;;5085325;28;20466;-79
2020/12/04 03:39:50;;;;;;;14.57;12.23;;;3.10;99.90;;;;;;5096537;28;20550;-79
2020/12/04 03:42:17;;;;;;;17.00;13.90;;;3.00;99.90;;;;;;5097292;28;20453;-79
2020/12/04 03:44:44;;;;;;;19.70;14.90;;;3.10;99.90;;;;;;5097639;28;20432;-78
2020/12/04 03:47:12;;;;;;;18.00;14.50;;;3.10;99.90;;;;;;5080557;28;20453;-79
2020/12/04 03:49:39;;;;;;;15.90;13.80;;;3.10;99.90;;;;;;5077202;28;21121;-79
2020/12/04 03:52:06;;;;;;;15.40;13.30;;;3.10;99.90;;;;;;5076482;28;20444;-79
2020/12/04 03:54:33;;;;;;;16.53;13.63;;;3.10;99.90;;;;;;5077215;28;20566;-78
2020/12/04 03:57:00;;;;;;;17.00;15.20;;;3.10;99.90;;;;;;5077916;28;20518;-78
2020/12/04 03:59:28;;;;;;;15.27;13.00;;;3.10;99.90;;;;;;5076641;28;20543;-78
2020/12/04 04:01:55;;;;;;;17.00;14.43;;;3.10;99.90;;;;;;5076683;28;20496;-78
2020/12/04 04:04:23;;;;;;;18.70;14.37;;;3.10;99.90;;;;;;5078197;28;20443;-79
2020/12/04 04:06:50;;;;;;;17.13;15.03;;;3.10;99.90;;;;;;5089466;28;20455;-79
2020/12/04 04:09:17;;;;;;;15.90;14.20;;;3.10;99.90;;;;;;5098652;28;20468;-79
2020/12/04 04:11:44;;;;;;;18.63;14.90;;;3.10;99.90;;;;;;5076384;28;20475;-79
2020/12/04 04:14:11;;;;;;;16.95;15.15;;;3.10;99.90;;;;;;5076429;28;20442;-79
2020/12/04 04:16:38;;;;;;;17.93;14.67;;;3.10;99.90;;;;;;5075516;28;20195;-79
2020/12/04 04:19:05;;;;;;;16.43;14.67;;;3.10;99.90;;;;;;5076757;28;20446;-79
2020/12/04 04:21:39;;;;;;;17.87;13.20;;;3.10;99.90;;;;;;5076718;28;20475;-79
2020/12/04 04:24:06;;;;;;;17.50;15.20;;;3.10;99.90;;;;;;5074510;28;20495;-78
2020/12/04 04:26:34;;;;;;;18.50;15.67;;;3.20;99.90;;;;;;5075912;28;20187;-78
2020/12/04 04:29:01;;;;;;;22.40;17.00;;;3.20;99.90;;;;;;5075620;28;20495;-79
2020/12/04 04:31:28;;;;;;;19.40;16.60;;;3.10;99.90;;;;;;5086388;28;20826;-79
2020/12/04 04:33:55;;;;;;;18.20;15.73;;;3.10;99.90;;;;;;5076363;28;20542;-78
2020/12/04 04:36:23;;;;;;;19.40;15.80;;;3.00;99.90;;;;;;5074960;28;20441;-78
2020/12/04 04:38:51;;;;;;;24.97;18.40;;;3.00;99.90;;;;;;5076159;28;20467;-78
2020/12/04 04:41:18;;;;;;;18.53;16.53;;;3.00;99.90;;;;;;5074225;28;20463;-78
2020/12/04 04:43:45;;;;;;;18.10;14.57;;;3.00;99.90;;;;;;5075504;28;20487;-78
2020/12/04 04:46:18;;;;;;;22.10;18.10;;;2.90;99.90;;;;;;5075332;28;20449;-78
2020/12/04 04:48:54;;;;;;;17.93;14.60;;;2.90;99.90;;;;;;5074987;28;20435;-78
2020/12/04 04:51:22;;;;;;;18.10;15.43;;;2.90;99.90;;;;;;5075206;28;20473;-78
2020/12/04 04:53:56;;;;;;;19.67;14.40;;;2.90;99.90;;;;;;5076152;28;20556;-78
2020/12/04 04:56:24;;;;;;;17.77;15.47;;;2.80;99.90;;;;;;5075083;28;20475;-79
2020/12/04 04:58:51;;;;;;;17.30;15.40;;;2.80;99.90;;;;;;5074907;28;20456;-79
2020/12/04 05:01:18;;;;;;;18.10;14.20;;;2.80;99.90;;;;;;5074624;28;20578;-79
2020/12/04 05:03:57;;;;;;;19.13;15.83;;;2.80;99.90;;;;;;5074533;28;20437;-79
2020/12/04 05:06:42;;;;;;;19.13;15.93;;;2.70;99.90;;;;;;5077488;28;20444;-79
2020/12/04 05:09:16;;;;;;;17.13;13.70;;;2.70;99.90;;;;;;5074847;28;20438;-78
2020/12/04 05:11:55;;;;;;;21.07;16.10;;;2.70;99.90;;;;;;5090548;28;20560;-78
2020/12/04 05:14:24;;;;;;;18.10;15.10;;;2.70;99.90;;;;;;5095000;28;20903;-78
2020/12/04 05:16:56;;;;;;;18.20;14.80;;;2.70;99.90;;;;;;5078682;28;20441;-79
2020/12/04 05:19:31;;;;;;;17.10;14.20;;;2.70;99.90;;;;;;5073632;28;20466;-78
2020/12/04 05:22:11;;;;;;;18.27;15.47;;;2.70;99.90;;;;;;5073214;28;20449;-78
2020/12/04 05:24:40;;;;;;;18.80;15.63;;;2.60;99.90;;;;;;5073369;28;20433;-78
2020/12/04 05:27:24;;;;;;;18.00;15.33;;;2.60;99.90;;;;;;5074349;28;21055;-78
2020/12/04 05:29:53;;;;;;;20.70;15.80;;;2.60;99.90;;;;;;5073274;28;20473;-78
2020/12/04 05:32:21;;;;;;;19.53;14.57;;;2.60;99.90;;;;;;5074217;28;20814;-79
2020/12/04 05:34:48;;;;;;;22.70;17.77;;;2.60;99.90;;;;;;5072690;28;20456;-78
2020/12/04 05:37:18;;;;;;;19.17;15.60;;;2.60;99.90;;;;;;5085035;28;20448;-78
2020/12/04 05:39:48;;;;;;;23.03;17.30;;;2.60;99.90;;;;;;5092947;28;20462;-78
2020/12/04 05:42:32;;;;;;;22.70;16.03;;;2.60;99.90;;;;;;5094184;28;20442;-78
2020/12/04 05:45:01;;;;;;;21.23;16.57;;;2.60;99.90;;;;;;5094286;28;20446;-78
2020/12/04 05:47:39;;;;;;;23.40;17.00;;;2.60;99.90;;;;;;5088991;28;20452;-78
2020/12/04 05:50:08;;;;;;;22.50;16.90;;;2.60;99.90;;;;;;5074222;28;20457;-78
2020/12/04 05:52:36;;;;;;;22.23;17.90;;;2.60;99.90;;;;;;5072764;28;20445;-78
2020/12/04 05:55:07;;;;;;;23.43;18.97;;;2.60;99.90;;;;;;5074588;28;20529;-78
2020/12/04 05:57:43;;;;;;;22.43;16.23;;;2.60;99.90;;;;;;5075384;28;20444;-78
2020/12/04 06:00:12;;;;;;;21.67;18.00;;;2.60;99.90;;;;;;5074511;28;20469;-78
2020/12/04 06:02:39;;;;;;;22.87;16.20;;;2.60;99.90;;;;;;5073966;28;20468;-79
2020/12/04 06:05:09;;;;;;;21.17;17.17;;;2.60;99.90;;;;;;5075331;28;20470;-79
2020/12/04 06:07:39;;;;;;;21.97;15.63;;;2.60;99.90;;;;;;5093725;28;20459;-79
2020/12/04 06:10:08;;;;;;;20.70;16.83;;;2.60;99.90;;;;;;5095085;28;20837;-79
2020/12/04 06:12:35;;;;;;;25.33;17.80;;;2.60;99.90;;;;;;5096545;28;20792;-79
2020/12/04 06:15:21;;;;;;;21.10;16.27;;;2.60;99.90;;;;;;5094989;28;20453;-79
2020/12/04 06:17:49;;;;;;;18.53;16.37;;;2.60;99.90;;;;;;5076967;28;20418;-79
2020/12/04 06:20:21;;;;;;;19.57;17.30;;;2.60;99.90;;;;;;5075904;28;20555;-79
2020/12/04 06:23:09;;;;;;;22.10;16.10;;;2.60;99.90;;;;;;5075624;28;20537;-79
2020/12/04 06:25:58;;;;;;;24.40;19.67;;;2.60;99.90;;;;;;5075546;28;20477;-79
2020/12/04 06:28:28;;;;;;;22.00;16.93;;;2.60;99.90;;;;;;5071483;28;20493;-79
2020/12/04 06:31:01;;;;;;;20.77;17.20;;;2.60;99.90;;;;;;5075825;28;20897;-79
2020/12/04 06:33:33;;;;;;;22.10;17.23;;;2.60;99.90;;;;;;5075129;28;20542;-79
2020/12/04 06:36:01;;;;;;;20.97;16.87;;;2.60;99.90;;;;;;5075924;28;20432;-79
2020/12/04 06:38:43;;;;;;;21.23;16.20;;;2.60;99.90;;;;;;5075501;28;20611;-79
2020/12/04 06:41:25;;;;;;;22.40;18.60;;;2.60;99.90;;;;;;5071408;28;20458;-79
2020/12/04 06:43:55;;;;;;;23.50;16.60;;;2.60;99.90;;;;;;5072837;28;20436;-79
2020/12/04 06:46:42;;;;;;;21.23;17.50;;;2.60;99.90;;;;;;5073508;28;20438;-79
2020/12/04 06:49:22;;;;;;;21.57;17.23;;;2.60;99.90;;;;;;5073184;28;20503;-79
2020/12/04 06:51:59;;;;;;;23.43;18.00;;;2.60;99.90;;;;;;5083296;28;20554;-78
2020/12/04 06:54:27;;;;;;;21.87;15.80;;;2.60;99.90;;;;;;5073187;28;20503;-78
2020/12/04 06:56:56;;;;;;;22.93;17.33;;;2.60;99.90;;;;;;5073623;28;20452;-79
2020/12/04 06:59:24;;;;;;;24.07;18.37;;;2.60;99.90;;;;;;5077975;28;20446;-78
2020/12/04 07:01:57;;;;;;;21.77;17.47;;;2.60;99.90;;;;;;5092486;28;20522;-79
2020/12/04 07:04:24;;;;;;;23.30;18.70;;;2.60;99.90;;;;;;5094047;28;20450;-79
2020/12/04 07:06:52;;;;;;;22.13;18.87;;;2.60;99.90;;;;;;5096953;28;20533;-78
2020/12/04 07:09:19;;;;;;;23.23;19.30;;;2.60;99.90;;;;;;5096297;28;20889;-78
2020/12/04 07:11:47;;;;;;;22.27;18.60;;;2.70;99.90;;;;;;5089805;28;20214;-79
2020/12/04 07:14:21;;;;;;;22.90;18.50;;;2.70;99.90;;;;;;5078289;28;20921;-79
2020/12/04 07:16:49;;;;;;;25.50;18.73;;;2.70;99.90;;;;;;5076844;28;21054;-79
2020/12/04 07:19:16;;;;;;;25.27;20.57;;;2.70;99.90;;;;;;5077079;28;20537;-79
2020/12/04 07:21:43;;;;;;;24.97;20.27;;;2.70;99.90;;;;;;5076992;28;20535;-79
2020/12/04 07:24:10;;;;;;;20.97;16.10;;;2.70;99.90;;;;;;5076528;28;20441;-79
2020/12/04 07:26:43;;;;;;;23.23;17.70;;;2.70;99.90;;;;;;5077046;28;20446;-79
2020/12/04 07:29:10;;;;;;;21.03;18.27;;;2.70;99.90;;;;;;5078535;28;20835;-79
2020/12/04 07:31:45;;;;;;;22.60;18.10;;;2.70;99.90;;;;;;5078613;28;20468;-79
2020/12/04 07:34:13;;;;;;;21.20;15.93;;;2.70;99.90;;;;;;5081575;28;20481;-79
2020/12/04 07:36:49;;;;;;;22.90;17.73;;;2.70;99.90;;;;;;5083767;28;21002;-79
2020/12/04 07:39:38;;;;;;;23.50;18.20;;;2.80;99.90;;;;;;5077197;28;20466;-79
2020/12/04 07:42:08;;;;;;;23.20;18.20;;;2.80;99.90;;;;;;5070791;28;20456;-79
2020/12/04 07:44:37;;;;;;;27.13;18.33;;;2.80;99.90;;;;;;5077834;28;20921;-79
2020/12/04 07:47:08;;;;;;;20.70;16.67;;;2.80;99.90;;;;;;5079632;28;20456;-78
2020/12/04 07:49:38;;;;;;;22.37;17.47;;;2.80;99.90;;;;;;5078082;28;20432;-78
2020/12/04 07:52:13;;;;;;;23.40;19.27;;;2.80;99.90;;;;;;5091630;28;20513;-79
2020/12/04 07:54:41;;;;;;;23.70;17.20;;;2.80;99.90;;;;;;5097497;28;20461;-78
2020/12/04 07:57:09;;;;;;;21.40;16.63;;;2.80;99.90;;;;;;5098367;28;20443;-78
2020/12/04 07:59:36;;;;;;;22.27;17.43;;;2.80;99.90;;;;;;5096265;28;20467;-78
2020/12/04 08:02:04;;;;;;;22.23;17.97;;;2.90;99.90;;;;;;5096216;28;21010;-78
2020/12/04 08:04:34;;;;;;;20.43;17.33;;;2.90;99.90;;;;;;5097428;28;20940;-78
2020/12/04 08:07:08;;;;;;;21.27;18.30;;;2.90;99.90;;;;;;5079758;28;20570;-78
2020/12/04 08:09:39;;;;;;;22.00;18.33;;;2.90;99.90;;;;;;5077076;28;20787;-78
2020/12/04 08:12:15;;;;;;;21.20;17.33;;;2.90;99.90;;;;;;5092738;28;20476;-78
2020/12/04 08:14:49;;;;;;;23.23;17.70;;;2.90;99.90;;;;;;5095529;28;20501;-78
2020/12/04 08:17:21;;;;;;;22.57;18.13;;;2.90;99.90;;;;;;5092928;28;20452;-78
2020/12/04 08:19:50;;;;;;;25.00;17.90;;;2.90;99.90;;;;;;5096644;28;20500;-78
2020/12/04 08:22:26;;;;;;;20.43;17.30;;;2.90;99.90;;;;;;5095488;28;20447;-78
2020/12/04 08:25:05;;;;;;;23.40;18.10;;;3.00;99.90;;;;;;5097859;28;20420;-78
2020/12/04 08:27:34;;;;;;;27.93;19.10;;;3.00;99.90;;;;;;5097803;28;20424;-78
2020/12/04 08:30:06;;;;;;;24.37;18.50;;;3.00;99.90;;;;;;5094845;28;20474;-78
2020/12/04 08:32:33;;;;;;;24.27;18.13;;;3.00;99.90;;;;;;5095187;28;20455;-78
2020/12/04 08:35:09;;;;;;;25.33;20.70;;;3.00;99.90;;;;;;5093149;28;20563;-78
2020/12/04 08:37:37;;;;;;;24.30;18.27;;;3.00;99.90;;;;;;5077559;28;20461;-78
2020/12/04 08:40:05;;;;;;;22.27;19.23;;;3.10;99.90;;;;;;5075539;28;20468;-78
2020/12/04 08:42:34;;;;;;;22.47;18.30;;;3.10;99.90;;;;;;5076373;28;20422;-78
2020/12/04 08:45:07;;;;;;;25.57;20.70;;;3.10;99.90;;;;;;5074630;28;20453;-78
2020/12/04 08:47:38;;;;;;;20.50;17.87;;;3.10;99.90;;;;;;5075993;28;20495;-78
2020/12/04 08:50:14;;;;;;;22.97;19.47;;;3.10;99.90;;;;;;5074548;28;20465;-78
2020/12/04 08:52:52;;;;;;;22.73;18.70;;;3.10;99.90;;;;;;5074756;28;20460;-79
2020/12/04 08:55:21;;;;;;;22.80;17.67;;;3.20;99.90;;;;;;5075650;28;20897;-79
2020/12/04 08:57:50;;;;;;;22.60;18.23;;;3.20;99.90;;;;;;5075587;28;20512;-78
2020/12/04 09:00:18;;;;;;;21.40;19.10;;;3.20;99.90;;;;;;5075733;28;20507;-78
2020/12/04 09:02:46;;;;;;;22.77;18.80;;;3.20;99.90;;;;;;5075660;28;20432;-78
2020/12/04 09:05:16;;;;;;;22.33;17.83;;;3.20;99.90;;;;;;5075431;28;20786;-78
2020/12/04 09:07:44;;;;;;;22.33;18.97;;;3.20;99.90;;;;;;5082370;28;20455;-79
2020/12/04 09:10:13;;;;;;;23.40;19.40;;;3.30;99.90;;;;;;5077624;28;21074;-79
2020/12/04 09:12:41;;;;;;;21.50;18.40;;;3.30;99.90;;;;;;5075432;28;20525;-79
2020/12/04 09:15:09;;;;;;;23.30;18.83;;;3.30;99.90;;;;;;5075488;28;20476;-79
2020/12/04 09:17:37;;;;;;;24.83;19.20;;;3.30;99.90;;;;;;5082712;28;20883;-79
2020/12/04 09:20:06;;;;;;;21.00;17.47;;;3.30;99.90;;;;;;5087857;28;20598;-79
2020/12/04 09:22:34;;;;;;;21.63;18.20;;;3.40;99.90;;;;;;5074276;28;20516;-78
2020/12/04 09:25:02;;;;;;;21.90;19.53;;;3.40;99.90;;;;;;5077286;28;20436;-79
2020/12/04 09:27:29;;;;;;;22.20;17.20;;;3.40;99.90;;;;;;5084145;28;20449;-78
2020/12/04 09:29:56;;;;;;;23.17;18.60;;;3.40;99.90;;;;;;5081479;28;20479;-78
2020/12/04 09:32:23;;;;;;;21.27;18.93;;;3.40;99.90;;;;;;5074191;28;20453;-78
2020/12/04 09:34:51;;;;;;;23.27;19.27;;;3.50;99.90;;;;;;5074829;28;20563;-78
2020/12/04 09:37:21;;;;;;;24.13;18.50;;;3.50;99.90;;;;;;5073845;28;20455;-78
2020/12/04 09:39:51;;;;;;;22.83;19.77;;;3.50;99.90;;;;;;5073868;28;20476;-79
2020/12/04 09:42:19;;;;;;;23.53;19.20;;;3.50;99.90;;;;;;5078351;28;20476;-78
2020/12/04 09:44:46;;;;;;;20.67;17.43;;;3.50;99.90;;;;;;5083501;28;20451;-78
2020/12/04 09:47:14;;;;;;;23.13;17.23;;;3.60;99.90;;;;;;5073531;28;20449;-78
2020/12/04 09:49:42;;;;;;;24.60;20.03;;;3.60;99.90;;;;;;5076950;28;20472;-78
2020/12/04 09:52:10;;;;;;;22.60;18.33;;;3.60;99.90;;;;;;5085603;28;20808;-78
2020/12/04 09:54:39;;;;;;;21.20;16.70;;;3.70;99.90;;;;;;5073089;28;20534;-78
2020/12/04 09:57:09;;;;;;;20.88;18.10;;;3.70;99.90;;;;;;5073731;28;20966;-78
2020/12/04 09:59:36;;;;;;;21.10;16.70;;;3.70;99.90;;;;;;5092125;28;20289;-78
2020/12/04 10:02:04;;;;;;;20.10;17.00;;;3.80;99.90;;;;;;5096088;28;20839;-78
2020/12/04 10:04:32;;;;;;;23.30;18.77;;;3.80;99.90;;;;;;5094453;28;20538;-79
2020/12/04 10:07:00;;;;;;;20.20;17.63;;;3.80;99.90;;;;;;5093535;28;20964;-78
2020/12/04 10:09:28;;;;;;;21.70;17.90;;;3.90;99.90;;;;;;5078453;28;20190;-79
2020/12/04 10:11:56;;;;;;;21.60;18.10;;;4.00;99.90;;;;;;5075621;28;20444;-78
2020/12/04 10:14:25;;;;;;;23.00;18.83;;;4.00;99.90;;;;;;5091544;28;20479;-78
2020/12/04 10:16:53;;;;;;;23.37;19.77;;;4.00;99.90;;;;;;5095437;28;20929;-78
2020/12/04 10:19:21;;;;;;;21.07;18.10;;;4.10;99.90;;;;;;5094999;28;20439;-78
2020/12/04 10:21:49;;;;;;;21.47;16.90;;;4.10;99.90;;;;;;5094561;28;20725;-78
2020/12/04 10:24:17;;;;;;;23.60;18.10;;;4.10;99.90;;;;;;5094460;28;20440;-78
2020/12/04 10:26:46;;;;;;;24.33;19.13;;;4.20;99.90;;;;;;5094995;28;20531;-78
2020/12/04 10:29:14;;;;;;;20.43;17.67;;;4.20;99.90;;;;;;5095120;28;20439;-78
2020/12/04 10:31:42;;;;;;;21.17;18.10;;;4.20;99.90;;;;;;5085199;28;20476;-78
2020/12/04 10:34:10;;;;;;;21.93;17.23;;;4.20;99.90;;;;;;5090932;28;20468;-79
2020/12/04 10:36:38;;;;;;;21.33;16.90;;;4.30;99.90;;;;;;5073920;28;20441;-79
2020/12/04 10:39:06;;;;;;;21.07;16.73;;;4.30;99.90;;;;;;5073555;28;20441;-79
2020/12/04 10:41:35;;;;;;;21.07;16.30;;;4.40;99.90;;;;;;5076231;28;20511;-78
2020/12/04 10:44:04;;;;;;;21.83;15.63;;;4.40;99.90;;;;;;5076174;28;20445;-78
2020/12/04 10:46:32;;;;;;;18.80;16.40;;;4.50;99.90;;;;;;5088709;28;20442;-78
2020/12/04 10:49:00;;;;;;;19.03;16.67;;;4.50;99.90;;;;;;5096418;28;20885;-78
2020/12/04 10:51:28;;;;;;;17.90;15.20;;;4.60;99.90;;;;;;5097903;28;21019;-78
2020/12/04 10:53:55;;;;;;;18.23;15.07;;;4.60;99.90;;;;;;5097903;28;20903;-79
2020/12/04 10:56:23;;;;;;;20.60;15.77;;;4.60;99.90;;;;;;5085373;28;20492;-79
2020/12/04 10:58:52;;;;;;;17.77;15.63;;;4.70;99.90;;;;;;5077646;28;20514;-78
2020/12/04 11:01:26;;;;;;;21.77;16.33;;;4.80;99.90;;;;;;5076639;28;20472;-78
2020/12/04 11:06:39;;;;;;;19.20;16.57;;;4.90;99.90;;;;;;5077922;28;20495;-78
2020/12/04 11:09:06;;;;;;;19.07;16.77;;;4.90;99.90;;;;;;5076389;28;20934;-78
2020/12/04 11:11:33;;;;;;;20.83;16.90;;;5.00;99.90;;;;;;5077892;28;20473;-78
2020/12/04 11:14:01;;;;;;;19.23;16.90;;;5.00;99.90;;;;;;5075926;28;20473;-78
2020/12/04 11:16:28;;;;;;;19.07;16.97;;;5.00;99.90;;;;;;5077081;28;20508;-78
2020/12/04 11:18:55;;;;;;;17.90;15.70;;;5.10;99.90;;;;;;5077186;28;20429;-78
2020/12/04 11:21:27;;;;;;;18.87;14.97;;;5.10;99.90;;;;;;5079497;28;20556;-79
2020/12/04 11:23:55;;;;;;;17.53;15.30;;;5.20;99.90;;;;;;5088653;28;20988;-79
2020/12/04 11:26:22;;;;;;;17.10;14.93;;;5.20;99.90;;;;;;5096871;28;20444;-79
2020/12/04 11:28:49;;;;;;;18.10;14.60;;;5.20;99.90;;;;;;5098355;28;20447;-80
2020/12/04 11:31:16;;;;;;;18.93;15.93;;;5.30;99.90;;;;;;5096924;28;20842;-79
2020/12/04 11:33:44;;;;;;;16.67;13.40;;;5.30;99.90;;;;;;5096970;28;20507;-79
2020/12/04 11:36:11;;;;;;;16.17;13.77;;;5.30;99.90;;;;;;5098707;28;20436;-78
2020/12/04 11:38:38;;;;;;;16.90;14.77;;;5.30;99.90;;;;;;5098380;28;20432;-78
2020/12/04 11:41:07;;;;;;;14.17;12.37;;;5.40;99.90;;;;;;5097157;28;20464;-78
2020/12/04 11:43:34;;;;;;;16.50;13.33;;;5.50;99.90;;;;;;5095999;28;20483;-79
2020/12/04 11:46:02;;;;;;;15.47;13.50;;;5.50;99.90;;;;;;5094425;28;20933;-79
2020/12/04 11:48:29;;;;;;;17.57;14.73;;;5.50;99.90;;;;;;5098663;28;20460;-79
2020/12/04 11:50:56;;;;;;;18.30;16.10;;;5.60;99.90;;;;;;5097562;28;20472;-79
2020/12/04 11:53:23;;;;;;;17.87;13.77;;;5.60;99.90;;;;;;5099274;28;20460;-79
2020/12/04 11:55:50;;;;;;;17.87;14.93;;;5.70;99.90;;;;;;5098917;28;20525;-79
2020/12/04 11:58:18;;;;;;;17.67;14.47;;;5.70;99.90;;;;;;5098148;28;20454;-79
2020/12/04 12:00:45;;;;;;;18.00;13.60;;;5.70;99.90;;;;;;5097633;28;20989;-79
2020/12/04 12:03:12;;;;;;;16.00;12.80;;;5.70;99.90;;;;;;5098759;28;20440;-78
2020/12/04 12:05:40;;;;;;;14.60;12.03;;;5.80;99.90;;;;;;5098728;28;20436;-78
2020/12/04 12:08:07;;;;;;;13.87;12.50;;;5.80;99.90;;;;;;5097087;28;20544;-78
2020/12/04 12:10:34;;;;;;;17.33;12.60;;;5.80;99.90;;;;;;5093562;28;20530;-79
2020/12/04 12:13:01;;;;;;;17.87;13.07;;;5.80;99.90;;;;;;5077035;28;20908;-79
2020/12/04 12:15:29;;;;;;;14.17;12.47;;;5.90;99.90;;;;;;5080392;28;20560;-79
2020/12/04 12:17:56;;;;;;;14.77;12.37;;;5.90;99.90;;;;;;5097801;28;20440;-79
2020/12/04 12:20:23;;;;;;;15.83;12.23;;;5.90;99.90;;;;;;5096863;28;20475;-79
2020/12/04 12:22:50;;;;;;;14.10;11.93;;;6.00;99.90;;;;;;5097635;28;20464;-79
2020/12/04 12:25:18;;;;;;;17.25;14.13;;;6.00;99.90;;;;;;5096579;28;20447;-78
2020/12/04 12:27:45;;;;;;;15.77;12.90;;;6.10;99.90;;;;;;5077401;28;20622;-78
2020/12/04 12:30:12;;;;;;;13.30;11.90;;;6.10;99.90;;;;;;5077897;28;21040;-79
2020/12/04 12:32:40;;;;;;;13.77;11.50;;;6.10;99.90;;;;;;5082390;28;20445;-79
2020/12/04 12:35:12;;;;;;;15.25;11.88;;;6.10;99.90;;;;;;5083686;28;20452;-79
2020/12/04 12:37:42;;;;;;;15.97;11.13;;;6.20;99.90;;;;;;5096984;28;20277;-79
2020/12/04 12:40:12;;;;;;;13.07;11.03;;;6.20;99.90;;;;;;5095972;28;20847;-79
2020/12/04 12:42:41;;;;;;;15.30;13.30;;;6.30;99.90;;;;;;5097180;28;20846;-78
2020/12/04 12:45:11;;;;;;;15.40;11.83;;;6.30;99.90;;;;;;5098118;28;20917;-78
2020/12/04 12:47:38;;;;;;;16.23;12.27;;;6.30;99.90;;;;;;5094693;28;20474;-78